sensor_id;sensor_type;location;lat;lon;timestamp;temperature;humidity
44863;DHT22;30597;49.628;10.850;2024-02-21T00:00:13;22.40;55.60
44863;DHT22;30597;49.628;10.850;2024-02-21T00:02:39;22.40;55.50
44863;DHT22;30597;49.628;10.850;2024-02-21T00:05:04;22.40;55.50
44863;DHT22;30597;49.628;10.850;2024-02-21T00:07:30;22.40;55.70
44863;DHT22;30597;49.628;10.850;2024-02-21T00:09:55;22.40;55.70
44863;DHT22;30597;49.628;10.850;2024-02-21T00:12:21;22.50;55.80
44863;DHT22;30597;49.628;10.850;2024-02-21T00:14:47;22.40;55.80
44863;DHT22;30597;49.628;10.850;2024-02-21T00:17:12;22.50;55.80
44863;DHT22;30597;49.628;10.850;2024-02-21T00:19:37;22.50;55.80
44863;DHT22;30597;49.628;10.850;2024-02-21T00:22:03;22.40;55.70
44863;DHT22;30597;49.628;10.850;2024-02-21T00:24:29;22.40;55.80
44863;DHT22;30597;49.628;10.850;2024-02-21T00:26:54;22.40;55.70
44863;DHT22;30597;49.628;10.850;2024-02-21T00:29:20;22.50;55.90
44863;DHT22;30597;49.628;10.850;2024-02-21T00:31:45;22.40;55.70
44863;DHT22;30597;49.628;10.850;2024-02-21T00:34:11;22.40;55.60
44863;DHT22;30597;49.628;10.850;2024-02-21T00:36:38;22.40;55.60
44863;DHT22;30597;49.628;10.850;2024-02-21T00:39:03;22.30;55.70
44863;DHT22;30597;49.628;10.850;2024-02-21T00:41:29;22.30;55.70
44863;DHT22;30597;49.628;10.850;2024-02-21T00:43:55;22.30;55.80
44863;DHT22;30597;49.628;10.850;2024-02-21T00:46:20;22.20;56.30
44863;DHT22;30597;49.628;10.850;2024-02-21T00:48:46;22.30;55.90
44863;DHT22;30597;49.628;10.850;2024-02-21T00:51:11;22.20;55.80
44863;DHT22;30597;49.628;10.850;2024-02-21T00:53:37;22.20;55.90
44863;DHT22;30597;49.628;10.850;2024-02-21T00:56:05;22.20;55.90
44863;DHT22;30597;49.628;10.850;2024-02-21T00:58:30;22.10;55.90
44863;DHT22;30597;49.628;10.850;2024-02-21T01:00:56;22.10;55.80
44863;DHT22;30597;49.628;10.850;2024-02-21T01:03:21;22.10;55.90
44863;DHT22;30597;49.628;10.850;2024-02-21T01:05:47;22.10;55.90
44863;DHT22;30597;49.628;10.850;2024-02-21T01:08:12;22.10;55.90
44863;DHT22;30597;49.628;10.850;2024-02-21T01:10:38;22.00;55.80
44863;DHT22;30597;49.628;10.850;2024-02-21T01:13:03;22.00;55.90
44863;DHT22;30597;49.628;10.850;2024-02-21T01:15:29;22.00;55.90
44863;DHT22;30597;49.628;10.850;2024-02-21T01:17:54;22.00;55.90
44863;DHT22;30597;49.628;10.850;2024-02-21T01:20:21;22.00;55.90
44863;DHT22;30597;49.628;10.850;2024-02-21T01:22:47;22.00;56.10
44863;DHT22;30597;49.628;10.850;2024-02-21T01:25:12;22.00;56.00
44863;DHT22;30597;49.628;10.850;2024-02-21T01:27:38;22.00;56.00
44863;DHT22;30597;49.628;10.850;2024-02-21T01:30:04;21.90;56.00
44863;DHT22;30597;49.628;10.850;2024-02-21T01:32:31;21.90;56.00
44863;DHT22;30597;49.628;10.850;2024-02-21T01:34:56;21.90;56.00
44863;DHT22;30597;49.628;10.850;2024-02-21T01:37:22;21.90;56.00
44863;DHT22;30597;49.628;10.850;2024-02-21T01:39:47;21.80;56.00
44863;DHT22;30597;49.628;10.850;2024-02-21T01:42:14;21.80;56.00
44863;DHT22;30597;49.628;10.850;2024-02-21T01:44:40;21.80;56.00
44863;DHT22;30597;49.628;10.850;2024-02-21T01:47:07;21.80;56.10
44863;DHT22;30597;49.628;10.850;2024-02-21T01:49:33;21.80;56.10
44863;DHT22;30597;49.628;10.850;2024-02-21T01:51:59;21.80;56.20
44863;DHT22;30597;49.628;10.850;2024-02-21T01:54:25;21.80;56.30
44863;DHT22;30597;49.628;10.850;2024-02-21T01:56:53;21.80;56.30
44863;DHT22;30597;49.628;10.850;2024-02-21T01:59:19;21.80;56.30
44863;DHT22;30597;49.628;10.850;2024-02-21T02:01:46;21.80;56.30
44863;DHT22;30597;49.628;10.850;2024-02-21T02:04:13;21.80;56.30
44863;DHT22;30597;49.628;10.850;2024-02-21T02:06:39;21.70;56.30
44863;DHT22;30597;49.628;10.850;2024-02-21T02:09:05;21.70;56.30
44863;DHT22;30597;49.628;10.850;2024-02-21T02:11:32;21.70;56.30
44863;DHT22;30597;49.628;10.850;2024-02-21T02:13:57;21.70;56.30
44863;DHT22;30597;49.628;10.850;2024-02-21T02:16:23;21.70;56.30
44863;DHT22;30597;49.628;10.850;2024-02-21T02:18:48;21.70;56.50
44863;DHT22;30597;49.628;10.850;2024-02-21T02:21:24;21.70;56.40
44863;DHT22;30597;49.628;10.850;2024-02-21T02:23:52;21.70;56.50
44863;DHT22;30597;49.628;10.850;2024-02-21T02:26:18;21.70;56.40
44863;DHT22;30597;49.628;10.850;2024-02-21T02:28:43;21.60;56.40
44863;DHT22;30597;49.628;10.850;2024-02-21T02:31:09;21.60;56.50
44863;DHT22;30597;49.628;10.850;2024-02-21T02:33:34;21.60;56.50
44863;DHT22;30597;49.628;10.850;2024-02-21T02:36:00;21.60;56.50
44863;DHT22;30597;49.628;10.850;2024-02-21T02:38:25;21.60;56.50
44863;DHT22;30597;49.628;10.850;2024-02-21T02:40:51;21.60;56.60
44863;DHT22;30597;49.628;10.850;2024-02-21T02:43:16;21.60;56.60
44863;DHT22;30597;49.628;10.850;2024-02-21T02:45:42;21.50;56.60
44863;DHT22;30597;49.628;10.850;2024-02-21T02:48:08;21.60;56.60
44863;DHT22;30597;49.628;10.850;2024-02-21T02:50:33;21.60;56.60
44863;DHT22;30597;49.628;10.850;2024-02-21T02:52:59;21.50;56.50
44863;DHT22;30597;49.628;10.850;2024-02-21T02:55:24;21.50;56.60
44863;DHT22;30597;49.628;10.850;2024-02-21T02:57:51;21.50;56.70
44863;DHT22;30597;49.628;10.850;2024-02-21T03:00:17;21.50;56.60
44863;DHT22;30597;49.628;10.850;2024-02-21T03:02:44;21.50;56.70
44863;DHT22;30597;49.628;10.850;2024-02-21T03:05:19;21.50;56.80
44863;DHT22;30597;49.628;10.850;2024-02-21T03:07:45;21.50;56.70
44863;DHT22;30597;49.628;10.850;2024-02-21T03:10:11;21.50;56.80
44863;DHT22;30597;49.628;10.850;2024-02-21T03:12:37;21.50;56.80
44863;DHT22;30597;49.628;10.850;2024-02-21T03:15:03;21.50;56.70
44863;DHT22;30597;49.628;10.850;2024-02-21T03:17:29;21.50;56.80
44863;DHT22;30597;49.628;10.850;2024-02-21T03:19:55;21.50;56.80
44863;DHT22;30597;49.628;10.850;2024-02-21T03:22:24;21.50;56.70
44863;DHT22;30597;49.628;10.850;2024-02-21T03:24:49;21.50;56.80
44863;DHT22;30597;49.628;10.850;2024-02-21T03:27:15;21.50;56.50
44863;DHT22;30597;49.628;10.850;2024-02-21T03:29:40;21.50;56.60
44863;DHT22;30597;49.628;10.850;2024-02-21T03:32:06;21.50;56.70
44863;DHT22;30597;49.628;10.850;2024-02-21T03:34:31;21.40;56.60
44863;DHT22;30597;49.628;10.850;2024-02-21T03:36:57;21.40;56.70
44863;DHT22;30597;49.628;10.850;2024-02-21T03:39:22;21.40;56.70
44863;DHT22;30597;49.628;10.850;2024-02-21T03:41:48;21.40;56.70
44863;DHT22;30597;49.628;10.850;2024-02-21T03:44:14;21.40;56.80
44863;DHT22;30597;49.628;10.850;2024-02-21T03:46:39;21.40;56.80
44863;DHT22;30597;49.628;10.850;2024-02-21T03:49:05;21.40;56.80
44863;DHT22;30597;49.628;10.850;2024-02-21T03:51:30;21.40;56.80
44863;DHT22;30597;49.628;10.850;2024-02-21T03:53:56;21.40;56.80
44863;DHT22;30597;49.628;10.850;2024-02-21T03:56:22;21.30;56.70
44863;DHT22;30597;49.628;10.850;2024-02-21T03:58:47;21.30;56.80
44863;DHT22;30597;49.628;10.850;2024-02-21T04:01:15;21.30;56.90
44863;DHT22;30597;49.628;10.850;2024-02-21T04:03:41;21.30;56.90
44863;DHT22;30597;49.628;10.850;2024-02-21T04:06:07;21.30;56.90
44863;DHT22;30597;49.628;10.850;2024-02-21T04:08:32;21.30;56.80
44863;DHT22;30597;49.628;10.850;2024-02-21T04:10:58;21.30;56.90
44863;DHT22;30597;49.628;10.850;2024-02-21T04:13:23;21.30;57.00
44863;DHT22;30597;49.628;10.850;2024-02-21T04:15:49;21.30;56.90
44863;DHT22;30597;49.628;10.850;2024-02-21T04:18:14;21.30;57.00
44863;DHT22;30597;49.628;10.850;2024-02-21T04:20:40;21.30;57.00
44863;DHT22;30597;49.628;10.850;2024-02-21T04:23:06;21.30;57.00
44863;DHT22;30597;49.628;10.850;2024-02-21T04:25:31;21.30;57.00
44863;DHT22;30597;49.628;10.850;2024-02-21T04:27:57;21.20;56.90
44863;DHT22;30597;49.628;10.850;2024-02-21T04:30:22;21.20;56.90
44863;DHT22;30597;49.628;10.850;2024-02-21T04:32:48;21.20;56.90
44863;DHT22;30597;49.628;10.850;2024-02-21T04:35:13;21.20;57.00
44863;DHT22;30597;49.628;10.850;2024-02-21T04:37:39;21.20;57.10
44863;DHT22;30597;49.628;10.850;2024-02-21T04:40:05;21.20;57.10
44863;DHT22;30597;49.628;10.850;2024-02-21T04:42:30;21.20;57.10
44863;DHT22;30597;49.628;10.850;2024-02-21T04:44:56;21.20;57.10
44863;DHT22;30597;49.628;10.850;2024-02-21T04:47:21;21.20;57.20
44863;DHT22;30597;49.628;10.850;2024-02-21T04:49:49;21.20;57.20
44863;DHT22;30597;49.628;10.850;2024-02-21T04:52:14;21.20;57.20
44863;DHT22;30597;49.628;10.850;2024-02-21T04:54:40;21.20;57.20
44863;DHT22;30597;49.628;10.850;2024-02-21T04:57:05;21.30;57.40
44863;DHT22;30597;49.628;10.850;2024-02-21T04:59:32;21.10;57.10
44863;DHT22;30597;49.628;10.850;2024-02-21T05:01:57;21.10;57.20
44863;DHT22;30597;49.628;10.850;2024-02-21T05:04:24;21.10;57.30
44863;DHT22;30597;49.628;10.850;2024-02-21T05:06:49;21.10;57.30
44863;DHT22;30597;49.628;10.850;2024-02-21T05:09:15;21.10;57.30
44863;DHT22;30597;49.628;10.850;2024-02-21T05:11:41;21.10;57.30
44863;DHT22;30597;49.628;10.850;2024-02-21T05:14:06;21.10;57.30
44863;DHT22;30597;49.628;10.850;2024-02-21T05:16:32;21.10;57.30
44863;DHT22;30597;49.628;10.850;2024-02-21T05:18:58;21.10;57.30
44863;DHT22;30597;49.628;10.850;2024-02-21T05:21:24;21.10;57.40
44863;DHT22;30597;49.628;10.850;2024-02-21T05:23:50;21.10;57.40
44863;DHT22;30597;49.628;10.850;2024-02-21T05:26:25;21.10;57.50
44863;DHT22;30597;49.628;10.850;2024-02-21T05:28:51;21.10;57.50
44863;DHT22;30597;49.628;10.850;2024-02-21T05:31:20;21.10;57.50
44863;DHT22;30597;49.628;10.850;2024-02-21T05:33:46;21.10;57.60
44863;DHT22;30597;49.628;10.850;2024-02-21T05:36:12;21.10;57.60
44863;DHT22;30597;49.628;10.850;2024-02-21T05:38:38;21.20;57.60
44863;DHT22;30597;49.628;10.850;2024-02-21T05:41:04;21.10;57.60
44863;DHT22;30597;49.628;10.850;2024-02-21T05:43:30;21.10;57.70
44863;DHT22;30597;49.628;10.850;2024-02-21T05:45:55;21.10;57.70
44863;DHT22;30597;49.628;10.850;2024-02-21T05:48:22;21.10;57.70
44863;DHT22;30597;49.628;10.850;2024-02-21T05:50:48;21.00;57.60
44863;DHT22;30597;49.628;10.850;2024-02-21T05:53:13;21.10;57.80
44863;DHT22;30597;49.628;10.850;2024-02-21T05:55:40;21.00;57.70
44863;DHT22;30597;49.628;10.850;2024-02-21T05:58:05;21.00;57.80
44863;DHT22;30597;49.628;10.850;2024-02-21T06:00:31;21.10;57.80
44863;DHT22;30597;49.628;10.850;2024-02-21T06:02:57;21.00;57.80
44863;DHT22;30597;49.628;10.850;2024-02-21T06:05:23;21.00;57.80
44863;DHT22;30597;49.628;10.850;2024-02-21T06:07:48;21.00;57.80
44863;DHT22;30597;49.628;10.850;2024-02-21T06:10:14;21.00;57.80
44863;DHT22;30597;49.628;10.850;2024-02-21T06:12:40;21.00;57.80
44863;DHT22;30597;49.628;10.850;2024-02-21T06:15:05;21.00;57.90
44863;DHT22;30597;49.628;10.850;2024-02-21T06:17:31;21.00;57.80
44863;DHT22;30597;49.628;10.850;2024-02-21T06:19:57;21.00;57.90
44863;DHT22;30597;49.628;10.850;2024-02-21T06:22:22;21.00;57.90
44863;DHT22;30597;49.628;10.850;2024-02-21T06:24:48;20.90;57.90
44863;DHT22;30597;49.628;10.850;2024-02-21T06:27:13;21.00;58.00
44863;DHT22;30597;49.628;10.850;2024-02-21T06:29:41;20.90;57.90
44863;DHT22;30597;49.628;10.850;2024-02-21T06:32:07;20.90;57.90
44863;DHT22;30597;49.628;10.850;2024-02-21T06:34:33;21.00;58.10
44863;DHT22;30597;49.628;10.850;2024-02-21T06:36:58;20.90;58.10
44863;DHT22;30597;49.628;10.850;2024-02-21T06:39:24;20.90;58.20
44863;DHT22;30597;49.628;10.850;2024-02-21T06:41:50;20.90;58.20
44863;DHT22;30597;49.628;10.850;2024-02-21T06:44:17;20.90;58.20
44863;DHT22;30597;49.628;10.850;2024-02-21T06:46:42;21.00;58.40
44863;DHT22;30597;49.628;10.850;2024-02-21T06:49:08;21.00;58.20
44863;DHT22;30597;49.628;10.850;2024-02-21T06:51:34;21.00;57.90
44863;DHT22;30597;49.628;10.850;2024-02-21T06:54:00;21.00;57.90
44863;DHT22;30597;49.628;10.850;2024-02-21T06:56:25;21.00;57.90
44863;DHT22;30597;49.628;10.850;2024-02-21T06:58:57;21.00;57.80
44863;DHT22;30597;49.628;10.850;2024-02-21T07:01:24;21.00;57.70
44863;DHT22;30597;49.628;10.850;2024-02-21T07:03:50;21.00;57.50
44863;DHT22;30597;49.628;10.850;2024-02-21T07:06:15;21.00;57.50
44863;DHT22;30597;49.628;10.850;2024-02-21T07:08:41;21.10;57.80
44863;DHT22;30597;49.628;10.850;2024-02-21T07:11:07;21.20;57.90
44863;DHT22;30597;49.628;10.850;2024-02-21T07:13:32;21.30;58.30
44863;DHT22;30597;49.628;10.850;2024-02-21T07:15:58;21.40;58.10
44863;DHT22;30597;49.628;10.850;2024-02-21T07:18:24;21.40;58.00
44863;DHT22;30597;49.628;10.850;2024-02-21T07:20:51;21.60;58.00
44863;DHT22;30597;49.628;10.850;2024-02-21T07:23:17;21.60;58.00
44863;DHT22;30597;49.628;10.850;2024-02-21T07:25:43;21.70;57.80
44863;DHT22;30597;49.628;10.850;2024-02-21T07:28:08;21.70;57.60
44863;DHT22;30597;49.628;10.850;2024-02-21T07:30:34;21.80;57.70
44863;DHT22;30597;49.628;10.850;2024-02-21T07:32:59;21.90;57.50
44863;DHT22;30597;49.628;10.850;2024-02-21T07:35:25;22.00;57.50
44863;DHT22;30597;49.628;10.850;2024-02-21T07:37:50;22.00;57.40
44863;DHT22;30597;49.628;10.850;2024-02-21T07:40:17;22.10;57.40
44863;DHT22;30597;49.628;10.850;2024-02-21T07:42:43;22.20;58.00
44863;DHT22;30597;49.628;10.850;2024-02-21T07:45:09;22.20;57.20
44863;DHT22;30597;49.628;10.850;2024-02-21T07:47:36;22.30;57.30
44863;DHT22;30597;49.628;10.850;2024-02-21T07:50:02;22.30;57.30
44863;DHT22;30597;49.628;10.850;2024-02-21T07:52:28;22.30;57.20
44863;DHT22;30597;49.628;10.850;2024-02-21T07:54:55;22.40;57.10
44863;DHT22;30597;49.628;10.850;2024-02-21T07:57:20;22.40;57.00
44863;DHT22;30597;49.628;10.850;2024-02-21T07:59:47;22.40;57.10
44863;DHT22;30597;49.628;10.850;2024-02-21T08:02:16;22.50;56.90
44863;DHT22;30597;49.628;10.850;2024-02-21T08:04:41;22.50;56.80
44863;DHT22;30597;49.628;10.850;2024-02-21T08:07:07;22.60;56.70
44863;DHT22;30597;49.628;10.850;2024-02-21T08:09:34;22.70;56.90
44863;DHT22;30597;49.628;10.850;2024-02-21T08:12:00;22.60;56.60
44863;DHT22;30597;49.628;10.850;2024-02-21T08:14:26;22.70;56.50
44863;DHT22;30597;49.628;10.850;2024-02-21T08:16:52;22.70;56.40
44863;DHT22;30597;49.628;10.850;2024-02-21T08:19:21;22.70;56.40
44863;DHT22;30597;49.628;10.850;2024-02-21T08:21:47;22.70;56.50
44863;DHT22;30597;49.628;10.850;2024-02-21T08:24:14;22.70;56.50
44863;DHT22;30597;49.628;10.850;2024-02-21T08:26:41;22.90;56.80
44863;DHT22;30597;49.628;10.850;2024-02-21T08:29:06;22.80;56.50
44863;DHT22;30597;49.628;10.850;2024-02-21T08:31:32;22.80;56.30
44863;DHT22;30597;49.628;10.850;2024-02-21T08:33:58;22.80;56.40
44863;DHT22;30597;49.628;10.850;2024-02-21T08:36:28;22.80;56.30
44863;DHT22;30597;49.628;10.850;2024-02-21T08:38:55;22.90;56.30
44863;DHT22;30597;49.628;10.850;2024-02-21T08:41:20;22.90;56.20
44863;DHT22;30597;49.628;10.850;2024-02-21T08:43:48;22.90;56.20
44863;DHT22;30597;49.628;10.850;2024-02-21T08:46:14;22.90;56.00
44863;DHT22;30597;49.628;10.850;2024-02-21T08:48:40;23.00;56.00
44863;DHT22;30597;49.628;10.850;2024-02-21T08:51:05;22.90;55.40
44863;DHT22;30597;49.628;10.850;2024-02-21T08:53:31;22.90;55.50
44863;DHT22;30597;49.628;10.850;2024-02-21T08:55:56;22.90;55.30
44863;DHT22;30597;49.628;10.850;2024-02-21T08:58:22;23.00;55.30
44863;DHT22;30597;49.628;10.850;2024-02-21T09:00:49;23.00;55.40
44863;DHT22;30597;49.628;10.850;2024-02-21T09:03:16;23.10;55.30
44863;DHT22;30597;49.628;10.850;2024-02-21T09:05:43;23.10;55.50
44863;DHT22;30597;49.628;10.850;2024-02-21T09:08:08;23.10;55.30
44863;DHT22;30597;49.628;10.850;2024-02-21T09:10:34;23.10;55.20
44863;DHT22;30597;49.628;10.850;2024-02-21T09:13:00;23.20;55.20
44863;DHT22;30597;49.628;10.850;2024-02-21T09:15:25;23.20;55.10
44863;DHT22;30597;49.628;10.850;2024-02-21T09:17:52;23.20;55.30
44863;DHT22;30597;49.628;10.850;2024-02-21T09:20:17;23.20;55.30
44863;DHT22;30597;49.628;10.850;2024-02-21T09:22:43;23.20;55.10
44863;DHT22;30597;49.628;10.850;2024-02-21T09:25:09;23.20;55.30
44863;DHT22;30597;49.628;10.850;2024-02-21T09:27:37;23.30;55.30
44863;DHT22;30597;49.628;10.850;2024-02-21T09:30:04;23.30;55.30
44863;DHT22;30597;49.628;10.850;2024-02-21T09:32:30;23.30;55.30
44863;DHT22;30597;49.628;10.850;2024-02-21T09:34:56;23.30;55.20
44863;DHT22;30597;49.628;10.850;2024-02-21T09:37:21;23.30;55.20
44863;DHT22;30597;49.628;10.850;2024-02-21T09:39:47;23.30;55.30
44863;DHT22;30597;49.628;10.850;2024-02-21T09:42:14;23.30;55.10
44863;DHT22;30597;49.628;10.850;2024-02-21T09:44:46;23.20;55.10
44863;DHT22;30597;49.628;10.850;2024-02-21T09:48:10;23.20;55.10
44863;DHT22;30597;49.628;10.850;2024-02-21T09:50:15;23.20;55.30
44863;DHT22;30597;49.628;10.850;2024-02-21T09:52:43;23.20;55.40
44863;DHT22;30597;49.628;10.850;2024-02-21T09:55:10;23.10;55.30
44863;DHT22;30597;49.628;10.850;2024-02-21T09:57:38;23.10;55.20
44863;DHT22;30597;49.628;10.850;2024-02-21T10:00:05;23.10;55.20
44863;DHT22;30597;49.628;10.850;2024-02-21T10:02:33;23.10;55.20
44863;DHT22;30597;49.628;10.850;2024-02-21T10:05:00;23.10;54.90
44863;DHT22;30597;49.628;10.850;2024-02-21T10:07:26;23.10;55.00
44863;DHT22;30597;49.628;10.850;2024-02-21T10:10:04;23.00;54.90
44863;DHT22;30597;49.628;10.850;2024-02-21T10:12:30;23.00;54.90
44863;DHT22;30597;49.628;10.850;2024-02-21T10:15:06;23.00;54.80
44863;DHT22;30597;49.628;10.850;2024-02-21T10:17:35;23.00;54.70
44863;DHT22;30597;49.628;10.850;2024-02-21T10:20:11;23.10;54.70
44863;DHT22;30597;49.628;10.850;2024-02-21T10:22:38;23.10;54.50
44863;DHT22;30597;49.628;10.850;2024-02-21T10:25:12;23.10;54.40
44863;DHT22;30597;49.628;10.850;2024-02-21T10:27:39;23.20;54.40
44863;DHT22;30597;49.628;10.850;2024-02-21T10:30:12;23.20;54.30
44863;DHT22;30597;49.628;10.850;2024-02-21T10:32:51;23.20;54.00
44863;DHT22;30597;49.628;10.850;2024-02-21T10:35:26;23.20;54.10
44863;DHT22;30597;49.628;10.850;2024-02-21T10:37:52;23.20;54.00
44863;DHT22;30597;49.628;10.850;2024-02-21T10:40:27;23.20;54.00
44863;DHT22;30597;49.628;10.850;2024-02-21T10:43:00;23.30;54.00
44863;DHT22;30597;49.628;10.850;2024-02-21T10:45:30;23.20;53.90
44863;DHT22;30597;49.628;10.850;2024-02-21T10:48:12;23.20;53.60
44863;DHT22;30597;49.628;10.850;2024-02-21T10:50:57;23.30;54.00
44863;DHT22;30597;49.628;10.850;2024-02-21T10:56:16;23.20;53.80
44863;DHT22;30597;49.628;10.850;2024-02-21T10:58:42;23.20;53.70
44863;DHT22;30597;49.628;10.850;2024-02-21T11:01:09;23.20;53.30
44863;DHT22;30597;49.628;10.850;2024-02-21T11:03:36;23.20;53.40
44863;DHT22;30597;49.628;10.850;2024-02-21T11:06:02;23.10;53.30
44863;DHT22;30597;49.628;10.850;2024-02-21T11:08:28;23.10;53.40
44863;DHT22;30597;49.628;10.850;2024-02-21T11:10:59;23.10;53.30
44863;DHT22;30597;49.628;10.850;2024-02-21T11:13:38;23.10;53.20
44863;DHT22;30597;49.628;10.850;2024-02-21T11:16:11;23.10;53.30
44863;DHT22;30597;49.628;10.850;2024-02-21T11:18:37;23.10;53.10
44863;DHT22;30597;49.628;10.850;2024-02-21T11:21:03;23.00;53.20
44863;DHT22;30597;49.628;10.850;2024-02-21T11:23:31;23.00;53.20
44863;DHT22;30597;49.628;10.850;2024-02-21T11:28:32;23.10;53.40
44863;DHT22;30597;49.628;10.850;2024-02-21T11:31:08;23.20;53.60
44863;DHT22;30597;49.628;10.850;2024-02-21T11:33:34;23.20;53.60
44863;DHT22;30597;49.628;10.850;2024-02-21T11:36:01;23.30;53.60
44863;DHT22;30597;49.628;10.850;2024-02-21T11:38:26;23.30;53.60
44863;DHT22;30597;49.628;10.850;2024-02-21T11:40:52;23.30;53.60
44863;DHT22;30597;49.628;10.850;2024-02-21T11:43:17;23.40;53.70
44863;DHT22;30597;49.628;10.850;2024-02-21T11:45:43;23.50;53.70
44863;DHT22;30597;49.628;10.850;2024-02-21T11:48:09;23.50;53.60
44863;DHT22;30597;49.628;10.850;2024-02-21T11:50:35;23.50;53.70
44863;DHT22;30597;49.628;10.850;2024-02-21T11:53:01;23.60;53.80
44863;DHT22;30597;49.628;10.850;2024-02-21T11:55:27;23.60;53.80
44863;DHT22;30597;49.628;10.850;2024-02-21T11:57:53;23.70;54.00
44863;DHT22;30597;49.628;10.850;2024-02-21T12:00:19;23.70;53.90
44863;DHT22;30597;49.628;10.850;2024-02-21T12:02:46;23.70;53.60
44863;DHT22;30597;49.628;10.850;2024-02-21T12:05:12;23.70;54.10
44863;DHT22;30597;49.628;10.850;2024-02-21T12:07:38;23.70;53.90
44863;DHT22;30597;49.628;10.850;2024-02-21T12:10:15;23.70;53.90
44863;DHT22;30597;49.628;10.850;2024-02-21T12:12:40;23.80;53.70
44863;DHT22;30597;49.628;10.850;2024-02-21T12:15:07;23.80;53.60
44863;DHT22;30597;49.628;10.850;2024-02-21T12:17:37;23.70;53.60
44863;DHT22;30597;49.628;10.850;2024-02-21T12:20:03;23.70;53.60
44863;DHT22;30597;49.628;10.850;2024-02-21T12:22:35;23.70;53.80
44863;DHT22;30597;49.628;10.850;2024-02-21T12:25:04;23.70;53.90
44863;DHT22;30597;49.628;10.850;2024-02-21T12:27:40;23.70;54.10
44863;DHT22;30597;49.628;10.850;2024-02-21T12:30:06;23.60;53.40
44863;DHT22;30597;49.628;10.850;2024-02-21T12:32:35;23.60;53.70
44863;DHT22;30597;49.628;10.850;2024-02-21T12:35:01;23.60;53.80
44863;DHT22;30597;49.628;10.850;2024-02-21T12:37:27;23.60;53.80
44863;DHT22;30597;49.628;10.850;2024-02-21T12:39:53;23.60;53.80
44863;DHT22;30597;49.628;10.850;2024-02-21T12:42:19;23.60;53.90
44863;DHT22;30597;49.628;10.850;2024-02-21T12:44:44;23.70;54.00
44863;DHT22;30597;49.628;10.850;2024-02-21T12:47:10;23.60;53.70
44863;DHT22;30597;49.628;10.850;2024-02-21T12:49:35;23.60;53.70
44863;DHT22;30597;49.628;10.850;2024-02-21T12:52:01;23.70;53.80
44863;DHT22;30597;49.628;10.850;2024-02-21T12:54:27;23.70;53.80
44863;DHT22;30597;49.628;10.850;2024-02-21T12:56:52;23.80;53.90
44863;DHT22;30597;49.628;10.850;2024-02-21T12:59:18;23.80;54.00
44863;DHT22;30597;49.628;10.850;2024-02-21T13:01:43;23.80;53.90
44863;DHT22;30597;49.628;10.850;2024-02-21T13:04:09;23.90;54.00
44863;DHT22;30597;49.628;10.850;2024-02-21T13:06:34;23.90;53.60
44863;DHT22;30597;49.628;10.850;2024-02-21T13:09:00;23.80;53.30
44863;DHT22;30597;49.628;10.850;2024-02-21T13:11:29;23.90;53.30
44863;DHT22;30597;49.628;10.850;2024-02-21T13:13:56;23.90;53.20
44863;DHT22;30597;49.628;10.850;2024-02-21T13:16:22;23.90;53.10
44863;DHT22;30597;49.628;10.850;2024-02-21T13:18:48;23.90;53.10
44863;DHT22;30597;49.628;10.850;2024-02-21T13:21:13;23.90;53.00
44863;DHT22;30597;49.628;10.850;2024-02-21T13:23:40;23.80;52.80
44863;DHT22;30597;49.628;10.850;2024-02-21T13:26:05;23.90;52.90
44863;DHT22;30597;49.628;10.850;2024-02-21T13:28:31;23.80;52.80
44863;DHT22;30597;49.628;10.850;2024-02-21T13:30:56;23.80;52.80
44863;DHT22;30597;49.628;10.850;2024-02-21T13:33:22;23.80;52.80
44863;DHT22;30597;49.628;10.850;2024-02-21T13:35:48;23.70;52.70
44863;DHT22;30597;49.628;10.850;2024-02-21T13:38:14;23.80;52.90
44863;DHT22;30597;49.628;10.850;2024-02-21T13:40:39;23.70;53.40
44863;DHT22;30597;49.628;10.850;2024-02-21T13:43:05;23.70;52.70
44863;DHT22;30597;49.628;10.850;2024-02-21T13:45:30;23.70;52.70
44863;DHT22;30597;49.628;10.850;2024-02-21T13:47:57;23.70;52.70
44863;DHT22;30597;49.628;10.850;2024-02-21T13:50:25;23.60;52.70
44863;DHT22;30597;49.628;10.850;2024-02-21T13:52:54;23.70;52.90
44863;DHT22;30597;49.628;10.850;2024-02-21T13:55:20;23.50;52.70
44863;DHT22;30597;49.628;10.850;2024-02-21T13:57:47;23.50;52.70
44863;DHT22;30597;49.628;10.850;2024-02-21T14:00:13;23.50;52.80
44863;DHT22;30597;49.628;10.850;2024-02-21T14:02:39;23.40;52.70
44863;DHT22;30597;49.628;10.850;2024-02-21T14:05:05;23.40;52.70
44863;DHT22;30597;49.628;10.850;2024-02-21T14:07:31;23.40;52.80
44863;DHT22;30597;49.628;10.850;2024-02-21T14:09:58;23.40;52.70
44863;DHT22;30597;49.628;10.850;2024-02-21T14:12:24;23.40;52.80
44863;DHT22;30597;49.628;10.850;2024-02-21T14:14:49;23.40;52.70
44863;DHT22;30597;49.628;10.850;2024-02-21T14:17:15;23.40;52.60
44863;DHT22;30597;49.628;10.850;2024-02-21T14:19:41;23.40;52.70
44863;DHT22;30597;49.628;10.850;2024-02-21T14:22:07;23.50;52.80
44863;DHT22;30597;49.628;10.850;2024-02-21T14:24:32;23.40;52.70
44863;DHT22;30597;49.628;10.850;2024-02-21T14:26:58;23.40;52.60
44863;DHT22;30597;49.628;10.850;2024-02-21T14:29:25;23.40;52.70
44863;DHT22;30597;49.628;10.850;2024-02-21T14:31:50;23.40;52.60
44863;DHT22;30597;49.628;10.850;2024-02-21T14:34:16;23.40;52.50
44863;DHT22;30597;49.628;10.850;2024-02-21T14:36:41;23.40;52.50
44863;DHT22;30597;49.628;10.850;2024-02-21T14:39:07;23.40;52.40
44863;DHT22;30597;49.628;10.850;2024-02-21T14:41:32;23.40;52.40
44863;DHT22;30597;49.628;10.850;2024-02-21T14:44:00;23.40;52.40
44863;DHT22;30597;49.628;10.850;2024-02-21T14:46:27;23.40;52.40
44863;DHT22;30597;49.628;10.850;2024-02-21T14:48:55;23.50;52.50
44863;DHT22;30597;49.628;10.850;2024-02-21T14:51:21;23.50;52.30
44863;DHT22;30597;49.628;10.850;2024-02-21T14:53:47;23.50;52.40
44863;DHT22;30597;49.628;10.850;2024-02-21T14:56:13;23.50;52.30
44863;DHT22;30597;49.628;10.850;2024-02-21T14:58:40;23.50;52.30
44863;DHT22;30597;49.628;10.850;2024-02-21T15:01:07;23.50;52.30
44863;DHT22;30597;49.628;10.850;2024-02-21T15:03:33;23.50;52.20
44863;DHT22;30597;49.628;10.850;2024-02-21T15:05:58;23.50;52.10
44863;DHT22;30597;49.628;10.850;2024-02-21T15:08:25;23.50;52.10
44863;DHT22;30597;49.628;10.850;2024-02-21T15:10:53;23.40;52.20
44863;DHT22;30597;49.628;10.850;2024-02-21T15:13:18;23.40;52.20
44863;DHT22;30597;49.628;10.850;2024-02-21T15:15:44;23.40;52.10